sensor_id;sensor_type;location;lat;lon;timestamp;temperature;humidity
18141;DHT22;9196;49.194;12.526;2022-12-07T00:00:18;3.30;99.90
18141;DHT22;9196;49.194;12.526;2022-12-07T00:02:45;3.30;99.90
18141;DHT22;9196;49.194;12.526;2022-12-07T00:05:12;3.30;99.90
18141;DHT22;9196;49.194;12.526;2022-12-07T00:07:39;3.30;99.90
18141;DHT22;9196;49.194;12.526;2022-12-07T00:10:06;3.30;99.90
18141;DHT22;9196;49.194;12.526;2022-12-07T00:12:34;3.40;99.90
18141;DHT22;9196;49.194;12.526;2022-12-07T00:15:01;3.30;99.90
18141;DHT22;9196;49.194;12.526;2022-12-07T00:17:28;3.20;99.90
18141;DHT22;9196;49.194;12.526;2022-12-07T00:19:55;3.10;99.90
18141;DHT22;9196;49.194;12.526;2022-12-07T00:22:22;3.00;99.90
18141;DHT22;9196;49.194;12.526;2022-12-07T00:24:48;2.90;99.90
18141;DHT22;9196;49.194;12.526;2022-12-07T00:27:15;3.00;99.90
18141;DHT22;9196;49.194;12.526;2022-12-07T00:29:43;3.00;99.90
18141;DHT22;9196;49.194;12.526;2022-12-07T00:32:10;2.90;99.90
18141;DHT22;9196;49.194;12.526;2022-12-07T00:34:37;3.00;99.90
18141;DHT22;9196;49.194;12.526;2022-12-07T00:37:04;3.00;99.90
18141;DHT22;9196;49.194;12.526;2022-12-07T00:39:31;3.00;99.90
18141;DHT22;9196;49.194;12.526;2022-12-07T00:41:57;3.10;99.90
18141;DHT22;9196;49.194;12.526;2022-12-07T00:44:24;3.00;99.90
18141;DHT22;9196;49.194;12.526;2022-12-07T00:46:52;2.90;99.90
18141;DHT22;9196;49.194;12.526;2022-12-07T00:49:21;3.00;99.90
18141;DHT22;9196;49.194;12.526;2022-12-07T00:51:48;2.90;99.90
18141;DHT22;9196;49.194;12.526;2022-12-07T00:54:15;2.90;99.90
18141;DHT22;9196;49.194;12.526;2022-12-07T00:56:42;3.00;99.90
18141;DHT22;9196;49.194;12.526;2022-12-07T00:59:12;3.00;99.90
18141;DHT22;9196;49.194;12.526;2022-12-07T01:01:39;2.90;99.90
18141;DHT22;9196;49.194;12.526;2022-12-07T01:04:07;2.90;99.90
18141;DHT22;9196;49.194;12.526;2022-12-07T01:06:34;2.90;99.90
18141;DHT22;9196;49.194;12.526;2022-12-07T01:09:01;2.90;99.90
18141;DHT22;9196;49.194;12.526;2022-12-07T01:11:29;3.00;99.90
18141;DHT22;9196;49.194;12.526;2022-12-07T01:13:58;3.00;99.90
18141;DHT22;9196;49.194;12.526;2022-12-07T01:16:27;3.00;99.90
18141;DHT22;9196;49.194;12.526;2022-12-07T01:18:55;3.00;99.90
18141;DHT22;9196;49.194;12.526;2022-12-07T01:21:25;2.90;99.90
18141;DHT22;9196;49.194;12.526;2022-12-07T01:23:53;2.90;99.90
18141;DHT22;9196;49.194;12.526;2022-12-07T01:26:22;3.00;99.90
18141;DHT22;9196;49.194;12.526;2022-12-07T01:28:50;3.00;99.90
18141;DHT22;9196;49.194;12.526;2022-12-07T01:31:18;3.00;99.90
18141;DHT22;9196;49.194;12.526;2022-12-07T01:33:48;2.90;99.90
18141;DHT22;9196;49.194;12.526;2022-12-07T01:36:16;2.90;99.90
18141;DHT22;9196;49.194;12.526;2022-12-07T01:38:46;2.90;99.90
18141;DHT22;9196;49.194;12.526;2022-12-07T01:41:14;2.90;99.90
18141;DHT22;9196;49.194;12.526;2022-12-07T01:44:09;2.90;99.90
18141;DHT22;9196;49.194;12.526;2022-12-07T01:46:36;2.80;99.90
18141;DHT22;9196;49.194;12.526;2022-12-07T01:49:04;2.80;99.90
18141;DHT22;9196;49.194;12.526;2022-12-07T01:51:32;2.80;99.90
18141;DHT22;9196;49.194;12.526;2022-12-07T01:54:01;2.80;99.90
18141;DHT22;9196;49.194;12.526;2022-12-07T01:56:29;2.90;99.90
18141;DHT22;9196;49.194;12.526;2022-12-07T01:58:56;2.80;99.90
18141;DHT22;9196;49.194;12.526;2022-12-07T02:01:24;2.80;99.90
18141;DHT22;9196;49.194;12.526;2022-12-07T02:03:51;2.90;99.90
18141;DHT22;9196;49.194;12.526;2022-12-07T02:06:22;2.90;99.90
18141;DHT22;9196;49.194;12.526;2022-12-07T02:08:51;2.80;99.90
18141;DHT22;9196;49.194;12.526;2022-12-07T02:11:20;2.90;99.90
18141;DHT22;9196;49.194;12.526;2022-12-07T02:13:47;2.80;99.90
18141;DHT22;9196;49.194;12.526;2022-12-07T02:16:23;2.80;99.90
18141;DHT22;9196;49.194;12.526;2022-12-07T02:19:18;2.80;99.90
18141;DHT22;9196;49.194;12.526;2022-12-07T02:21:52;2.80;99.90
18141;DHT22;9196;49.194;12.526;2022-12-07T02:24:33;2.80;99.90
18141;DHT22;9196;49.194;12.526;2022-12-07T02:27:32;2.80;99.90
18141;DHT22;9196;49.194;12.526;2022-12-07T02:30:07;2.80;99.90
18141;DHT22;9196;49.194;12.526;2022-12-07T02:32:43;2.70;99.90
18141;DHT22;9196;49.194;12.526;2022-12-07T02:35:15;2.80;99.90
18141;DHT22;9196;49.194;12.526;2022-12-07T02:37:51;2.70;99.90
18141;DHT22;9196;49.194;12.526;2022-12-07T02:40:25;2.70;99.90
18141;DHT22;9196;49.194;12.526;2022-12-07T02:43:00;2.60;99.90
18141;DHT22;9196;49.194;12.526;2022-12-07T02:45:31;2.60;99.90
18141;DHT22;9196;49.194;12.526;2022-12-07T02:47:59;2.70;99.90
18141;DHT22;9196;49.194;12.526;2022-12-07T02:50:27;2.70;99.90
18141;DHT22;9196;49.194;12.526;2022-12-07T02:52:54;2.70;99.90
18141;DHT22;9196;49.194;12.526;2022-12-07T02:55:28;2.70;99.90
18141;DHT22;9196;49.194;12.526;2022-12-07T02:58:09;2.70;99.90
18141;DHT22;9196;49.194;12.526;2022-12-07T03:00:46;2.70;99.90
18141;DHT22;9196;49.194;12.526;2022-12-07T03:03:18;2.70;99.90
18141;DHT22;9196;49.194;12.526;2022-12-07T03:05:56;2.70;99.90
18141;DHT22;9196;49.194;12.526;2022-12-07T03:08:38;2.80;99.90
18141;DHT22;9196;49.194;12.526;2022-12-07T03:11:10;2.80;99.90
18141;DHT22;9196;49.194;12.526;2022-12-07T03:13:41;2.80;99.90
18141;DHT22;9196;49.194;12.526;2022-12-07T03:16:15;2.80;99.90
18141;DHT22;9196;49.194;12.526;2022-12-07T03:18:47;2.80;99.90
18141;DHT22;9196;49.194;12.526;2022-12-07T03:21:17;2.80;99.90
18141;DHT22;9196;49.194;12.526;2022-12-07T03:23:48;2.90;99.90
18141;DHT22;9196;49.194;12.526;2022-12-07T03:26:17;2.80;99.90
18141;DHT22;9196;49.194;12.526;2022-12-07T03:28:50;2.90;99.90
18141;DHT22;9196;49.194;12.526;2022-12-07T03:31:21;3.00;99.90
18141;DHT22;9196;49.194;12.526;2022-12-07T03:33:53;3.00;99.90
18141;DHT22;9196;49.194;12.526;2022-12-07T03:36:24;3.00;99.90
18141;DHT22;9196;49.194;12.526;2022-12-07T03:38:57;2.90;99.90
18141;DHT22;9196;49.194;12.526;2022-12-07T03:41:26;2.80;99.90
18141;DHT22;9196;49.194;12.526;2022-12-07T03:43:54;2.80;99.90
18141;DHT22;9196;49.194;12.526;2022-12-07T03:46:29;2.80;99.90
18141;DHT22;9196;49.194;12.526;2022-12-07T03:49:03;2.90;99.90
18141;DHT22;9196;49.194;12.526;2022-12-07T03:51:38;2.70;99.90
18141;DHT22;9196;49.194;12.526;2022-12-07T03:54:10;2.80;99.90
18141;DHT22;9196;49.194;12.526;2022-12-07T03:56:38;2.80;99.90
18141;DHT22;9196;49.194;12.526;2022-12-07T03:59:07;2.80;99.90
18141;DHT22;9196;49.194;12.526;2022-12-07T04:01:35;2.80;99.90
18141;DHT22;9196;49.194;12.526;2022-12-07T04:04:02;2.80;99.90
18141;DHT22;9196;49.194;12.526;2022-12-07T04:06:29;2.90;99.90
18141;DHT22;9196;49.194;12.526;2022-12-07T04:08:56;2.90;99.90
18141;DHT22;9196;49.194;12.526;2022-12-07T04:11:23;2.90;99.90
18141;DHT22;9196;49.194;12.526;2022-12-07T04:13:49;3.00;99.90
18141;DHT22;9196;49.194;12.526;2022-12-07T04:16:35;3.00;99.90
18141;DHT22;9196;49.194;12.526;2022-12-07T04:19:02;3.00;99.90
18141;DHT22;9196;49.194;12.526;2022-12-07T04:21:29;2.90;99.90
18141;DHT22;9196;49.194;12.526;2022-12-07T04:23:56;2.80;99.90
18141;DHT22;9196;49.194;12.526;2022-12-07T04:26:23;2.80;99.90
18141;DHT22;9196;49.194;12.526;2022-12-07T04:28:49;2.90;99.90
18141;DHT22;9196;49.194;12.526;2022-12-07T04:31:16;2.80;99.90
18141;DHT22;9196;49.194;12.526;2022-12-07T04:33:44;2.80;99.90
18141;DHT22;9196;49.194;12.526;2022-12-07T04:36:11;2.70;99.90
18141;DHT22;9196;49.194;12.526;2022-12-07T04:38:38;2.80;99.90
18141;DHT22;9196;49.194;12.526;2022-12-07T04:41:05;2.80;99.90
18141;DHT22;9196;49.194;12.526;2022-12-07T04:43:32;2.90;99.90
18141;DHT22;9196;49.194;12.526;2022-12-07T04:45:59;2.80;99.90
18141;DHT22;9196;49.194;12.526;2022-12-07T04:48:26;2.90;99.90
18141;DHT22;9196;49.194;12.526;2022-12-07T04:50:54;2.90;99.90
18141;DHT22;9196;49.194;12.526;2022-12-07T04:53:21;2.90;99.90
18141;DHT22;9196;49.194;12.526;2022-12-07T04:55:48;2.80;99.90
18141;DHT22;9196;49.194;12.526;2022-12-07T04:58:15;2.80;99.90
18141;DHT22;9196;49.194;12.526;2022-12-07T05:00:42;2.70;99.90
18141;DHT22;9196;49.194;12.526;2022-12-07T05:03:09;2.70;99.90
18141;DHT22;9196;49.194;12.526;2022-12-07T05:05:35;2.70;99.90
18141;DHT22;9196;49.194;12.526;2022-12-07T05:08:04;2.60;99.90
18141;DHT22;9196;49.194;12.526;2022-12-07T05:10:31;2.50;99.90
18141;DHT22;9196;49.194;12.526;2022-12-07T05:12:57;2.50;99.90
18141;DHT22;9196;49.194;12.526;2022-12-07T05:15:24;2.40;99.90
18141;DHT22;9196;49.194;12.526;2022-12-07T05:17:51;2.40;99.90
18141;DHT22;9196;49.194;12.526;2022-12-07T05:20:18;2.40;99.90
18141;DHT22;9196;49.194;12.526;2022-12-07T05:22:45;2.40;99.90
18141;DHT22;9196;49.194;12.526;2022-12-07T05:25:14;2.40;99.90
18141;DHT22;9196;49.194;12.526;2022-12-07T05:27:40;2.30;99.90
18141;DHT22;9196;49.194;12.526;2022-12-07T05:30:08;2.40;99.90
18141;DHT22;9196;49.194;12.526;2022-12-07T05:32:35;2.30;99.90
18141;DHT22;9196;49.194;12.526;2022-12-07T05:35:02;2.30;99.90
18141;DHT22;9196;49.194;12.526;2022-12-07T05:37:29;2.30;99.90
18141;DHT22;9196;49.194;12.526;2022-12-07T05:39:55;2.30;99.90
18141;DHT22;9196;49.194;12.526;2022-12-07T05:42:24;2.30;99.90
18141;DHT22;9196;49.194;12.526;2022-12-07T05:44:50;2.30;99.90
18141;DHT22;9196;49.194;12.526;2022-12-07T05:47:17;2.20;99.90
18141;DHT22;9196;49.194;12.526;2022-12-07T05:49:44;2.20;99.90
18141;DHT22;9196;49.194;12.526;2022-12-07T05:52:11;2.30;99.90
18141;DHT22;9196;49.194;12.526;2022-12-07T05:54:38;2.30;99.90
18141;DHT22;9196;49.194;12.526;2022-12-07T05:57:04;2.30;99.90
18141;DHT22;9196;49.194;12.526;2022-12-07T05:59:33;2.30;99.90
18141;DHT22;9196;49.194;12.526;2022-12-07T06:02:00;2.30;99.90
18141;DHT22;9196;49.194;12.526;2022-12-07T06:04:29;2.30;99.90
18141;DHT22;9196;49.194;12.526;2022-12-07T06:06:56;2.30;99.90
18141;DHT22;9196;49.194;12.526;2022-12-07T06:09:24;2.30;99.90
18141;DHT22;9196;49.194;12.526;2022-12-07T06:11:52;2.30;99.90
18141;DHT22;9196;49.194;12.526;2022-12-07T06:14:37;2.30;99.90
18141;DHT22;9196;49.194;12.526;2022-12-07T06:17:04;2.30;99.90
18141;DHT22;9196;49.194;12.526;2022-12-07T06:19:31;2.30;99.90
18141;DHT22;9196;49.194;12.526;2022-12-07T06:21:58;2.20;99.90
18141;DHT22;9196;49.194;12.526;2022-12-07T06:24:25;2.30;99.90
18141;DHT22;9196;49.194;12.526;2022-12-07T06:26:52;2.30;99.90
18141;DHT22;9196;49.194;12.526;2022-12-07T06:29:19;2.20;99.90
18141;DHT22;9196;49.194;12.526;2022-12-07T06:31:47;2.30;99.90
18141;DHT22;9196;49.194;12.526;2022-12-07T06:34:16;2.30;99.90
18141;DHT22;9196;49.194;12.526;2022-12-07T06:36:43;2.30;99.90
18141;DHT22;9196;49.194;12.526;2022-12-07T06:39:11;2.30;99.90
18141;DHT22;9196;49.194;12.526;2022-12-07T06:41:38;2.30;99.90
18141;DHT22;9196;49.194;12.526;2022-12-07T06:44:05;2.30;99.90
18141;DHT22;9196;49.194;12.526;2022-12-07T06:46:32;2.30;99.90
18141;DHT22;9196;49.194;12.526;2022-12-07T06:49:02;2.30;99.90
18141;DHT22;9196;49.194;12.526;2022-12-07T06:51:29;2.20;99.90
18141;DHT22;9196;49.194;12.526;2022-12-07T06:53:56;2.30;99.90
18141;DHT22;9196;49.194;12.526;2022-12-07T06:56:23;2.30;99.90
18141;DHT22;9196;49.194;12.526;2022-12-07T06:58:50;2.20;99.90
18141;DHT22;9196;49.194;12.526;2022-12-07T07:01:18;2.30;99.90
18141;DHT22;9196;49.194;12.526;2022-12-07T07:03:45;2.30;99.90
18141;DHT22;9196;49.194;12.526;2022-12-07T07:06:14;2.30;99.90
18141;DHT22;9196;49.194;12.526;2022-12-07T07:08:41;2.40;99.90
18141;DHT22;9196;49.194;12.526;2022-12-07T07:11:09;2.40;99.90
18141;DHT22;9196;49.194;12.526;2022-12-07T07:13:36;2.40;99.90
18141;DHT22;9196;49.194;12.526;2022-12-07T07:16:03;2.40;99.90
18141;DHT22;9196;49.194;12.526;2022-12-07T07:18:30;2.40;99.90
18141;DHT22;9196;49.194;12.526;2022-12-07T07:20:57;2.30;99.90
18141;DHT22;9196;49.194;12.526;2022-12-07T07:23:25;2.30;99.90
18141;DHT22;9196;49.194;12.526;2022-12-07T07:25:52;2.40;99.90
18141;DHT22;9196;49.194;12.526;2022-12-07T07:28:19;2.40;99.90
18141;DHT22;9196;49.194;12.526;2022-12-07T07:30:46;2.40;99.90
18141;DHT22;9196;49.194;12.526;2022-12-07T07:33:13;2.30;99.90
18141;DHT22;9196;49.194;12.526;2022-12-07T07:35:40;2.30;99.90
18141;DHT22;9196;49.194;12.526;2022-12-07T07:38:08;2.30;99.90
18141;DHT22;9196;49.194;12.526;2022-12-07T07:40:36;2.20;99.90
18141;DHT22;9196;49.194;12.526;2022-12-07T07:43:03;2.20;99.90
18141;DHT22;9196;49.194;12.526;2022-12-07T07:45:30;2.10;99.90
18141;DHT22;9196;49.194;12.526;2022-12-07T07:47:57;2.10;99.90
18141;DHT22;9196;49.194;12.526;2022-12-07T07:50:23;2.10;99.90
18141;DHT22;9196;49.194;12.526;2022-12-07T07:52:51;2.20;99.90
18141;DHT22;9196;49.194;12.526;2022-12-07T07:55:18;2.10;99.90
18141;DHT22;9196;49.194;12.526;2022-12-07T07:57:46;2.20;99.90
18141;DHT22;9196;49.194;12.526;2022-12-07T08:00:15;2.10;99.90
18141;DHT22;9196;49.194;12.526;2022-12-07T08:02:42;2.10;99.90
18141;DHT22;9196;49.194;12.526;2022-12-07T08:05:10;2.10;99.90
18141;DHT22;9196;49.194;12.526;2022-12-07T08:07:37;2.10;99.90
18141;DHT22;9196;49.194;12.526;2022-12-07T08:10:05;2.10;99.90
18141;DHT22;9196;49.194;12.526;2022-12-07T08:12:35;2.10;99.90
18141;DHT22;9196;49.194;12.526;2022-12-07T08:15:05;2.20;99.90
18141;DHT22;9196;49.194;12.526;2022-12-07T08:17:33;2.10;99.90
18141;DHT22;9196;49.194;12.526;2022-12-07T08:19:59;2.20;99.90
18141;DHT22;9196;49.194;12.526;2022-12-07T08:22:26;2.30;99.90
18141;DHT22;9196;49.194;12.526;2022-12-07T08:24:53;2.30;99.90
18141;DHT22;9196;49.194;12.526;2022-12-07T08:27:20;2.30;99.90
18141;DHT22;9196;49.194;12.526;2022-12-07T08:29:52;2.30;99.90
18141;DHT22;9196;49.194;12.526;2022-12-07T08:32:20;2.20;99.90
18141;DHT22;9196;49.194;12.526;2022-12-07T08:34:47;2.30;99.90
18141;DHT22;9196;49.194;12.526;2022-12-07T08:37:14;2.30;99.90
18141;DHT22;9196;49.194;12.526;2022-12-07T08:39:40;2.30;99.90
18141;DHT22;9196;49.194;12.526;2022-12-07T08:42:07;2.30;99.90
18141;DHT22;9196;49.194;12.526;2022-12-07T08:44:34;2.30;99.90
18141;DHT22;9196;49.194;12.526;2022-12-07T08:47:03;2.20;99.90
18141;DHT22;9196;49.194;12.526;2022-12-07T08:49:35;2.30;99.90
18141;DHT22;9196;49.194;12.526;2022-12-07T08:52:04;2.30;99.90
18141;DHT22;9196;49.194;12.526;2022-12-07T08:54:34;2.40;99.90
18141;DHT22;9196;49.194;12.526;2022-12-07T08:57:03;2.40;99.90
18141;DHT22;9196;49.194;12.526;2022-12-07T08:59:33;2.40;99.90
18141;DHT22;9196;49.194;12.526;2022-12-07T09:02:01;2.40;99.90
18141;DHT22;9196;49.194;12.526;2022-12-07T09:04:28;2.40;99.90
18141;DHT22;9196;49.194;12.526;2022-12-07T09:06:56;2.50;99.90
18141;DHT22;9196;49.194;12.526;2022-12-07T09:09:23;2.60;99.90
18141;DHT22;9196;49.194;12.526;2022-12-07T09:11:50;2.70;99.90
18141;DHT22;9196;49.194;12.526;2022-12-07T09:14:16;2.60;99.90
18141;DHT22;9196;49.194;12.526;2022-12-07T09:16:44;2.70;99.90
18141;DHT22;9196;49.194;12.526;2022-12-07T09:19:11;2.70;99.90
18141;DHT22;9196;49.194;12.526;2022-12-07T09:21:38;2.60;99.90
18141;DHT22;9196;49.194;12.526;2022-12-07T09:24:07;2.50;99.90
18141;DHT22;9196;49.194;12.526;2022-12-07T09:26:34;2.50;99.90
18141;DHT22;9196;49.194;12.526;2022-12-07T09:29:02;2.50;99.90
18141;DHT22;9196;49.194;12.526;2022-12-07T09:31:29;2.60;99.90
18141;DHT22;9196;49.194;12.526;2022-12-07T09:33:56;2.70;99.90
18141;DHT22;9196;49.194;12.526;2022-12-07T09:36:24;2.70;99.90
18141;DHT22;9196;49.194;12.526;2022-12-07T09:38:51;2.70;99.90
18141;DHT22;9196;49.194;12.526;2022-12-07T09:41:19;2.70;99.90
18141;DHT22;9196;49.194;12.526;2022-12-07T09:43:47;2.80;99.90
18141;DHT22;9196;49.194;12.526;2022-12-07T09:46:16;2.80;99.90
18141;DHT22;9196;49.194;12.526;2022-12-07T09:48:45;2.90;99.90
18141;DHT22;9196;49.194;12.526;2022-12-07T09:51:15;2.80;99.90
18141;DHT22;9196;49.194;12.526;2022-12-07T09:53:43;2.80;99.90
18141;DHT22;9196;49.194;12.526;2022-12-07T09:56:12;2.80;99.90
18141;DHT22;9196;49.194;12.526;2022-12-07T09:58:42;2.80;99.90
18141;DHT22;9196;49.194;12.526;2022-12-07T10:01:13;2.70;99.90
18141;DHT22;9196;49.194;12.526;2022-12-07T10:03:42;2.80;99.90
18141;DHT22;9196;49.194;12.526;2022-12-07T10:06:12;2.90;99.90
18141;DHT22;9196;49.194;12.526;2022-12-07T10:08:39;2.90;99.90
18141;DHT22;9196;49.194;12.526;2022-12-07T10:11:07;3.00;99.90
18141;DHT22;9196;49.194;12.526;2022-12-07T10:13:37;3.10;99.90
18141;DHT22;9196;49.194;12.526;2022-12-07T10:16:06;3.20;99.90
18141;DHT22;9196;49.194;12.526;2022-12-07T10:18:53;3.20;99.90
18141;DHT22;9196;49.194;12.526;2022-12-07T10:21:22;3.10;99.90
18141;DHT22;9196;49.194;12.526;2022-12-07T10:24:13;3.10;99.90
18141;DHT22;9196;49.194;12.526;2022-12-07T10:26:50;3.10;99.90
18141;DHT22;9196;49.194;12.526;2022-12-07T10:29:19;3.10;99.90
18141;DHT22;9196;49.194;12.526;2022-12-07T10:31:53;3.10;99.90
18141;DHT22;9196;49.194;12.526;2022-12-07T10:34:23;3.00;99.90
18141;DHT22;9196;49.194;12.526;2022-12-07T10:36:51;3.00;99.90
18141;DHT22;9196;49.194;12.526;2022-12-07T10:39:20;3.00;99.90
18141;DHT22;9196;49.194;12.526;2022-12-07T10:41:54;3.00;99.90
18141;DHT22;9196;49.194;12.526;2022-12-07T10:44:24;3.00;99.90
18141;DHT22;9196;49.194;12.526;2022-12-07T10:47:06;3.10;99.90
18141;DHT22;9196;49.194;12.526;2022-12-07T10:50:14;3.10;99.90
18141;DHT22;9196;49.194;12.526;2022-12-07T10:53:02;3.10;99.90
18141;DHT22;9196;49.194;12.526;2022-12-07T10:55:39;3.20;99.90
18141;DHT22;9196;49.194;12.526;2022-12-07T10:58:22;3.30;99.90
18141;DHT22;9196;49.194;12.526;2022-12-07T11:00:56;3.30;99.90
18141;DHT22;9196;49.194;12.526;2022-12-07T11:03:41;3.30;99.90
18141;DHT22;9196;49.194;12.526;2022-12-07T11:06:16;3.20;99.90
18141;DHT22;9196;49.194;12.526;2022-12-07T11:09:15;3.20;99.90
18141;DHT22;9196;49.194;12.526;2022-12-07T11:11:50;3.20;99.90
18141;DHT22;9196;49.194;12.526;2022-12-07T11:14:24;3.10;99.90
18141;DHT22;9196;49.194;12.526;2022-12-07T11:16:56;3.10;99.90
18141;DHT22;9196;49.194;12.526;2022-12-07T11:19:35;3.20;99.90
18141;DHT22;9196;49.194;12.526;2022-12-07T11:22:11;3.20;99.90
18141;DHT22;9196;49.194;12.526;2022-12-07T11:24:47;3.30;99.90
18141;DHT22;9196;49.194;12.526;2022-12-07T11:27:22;3.20;99.90
18141;DHT22;9196;49.194;12.526;2022-12-07T11:30:01;3.20;99.90
18141;DHT22;9196;49.194;12.526;2022-12-07T11:32:44;3.10;99.90
18141;DHT22;9196;49.194;12.526;2022-12-07T11:35:21;3.20;99.90
18141;DHT22;9196;49.194;12.526;2022-12-07T11:37:51;3.20;99.90
18141;DHT22;9196;49.194;12.526;2022-12-07T11:40:26;3.20;99.90
18141;DHT22;9196;49.194;12.526;2022-12-07T11:42:59;3.20;99.90
18141;DHT22;9196;49.194;12.526;2022-12-07T11:45:30;3.10;99.90
18141;DHT22;9196;49.194;12.526;2022-12-07T11:48:00;3.10;99.90
18141;DHT22;9196;49.194;12.526;2022-12-07T11:50:33;3.00;99.90
18141;DHT22;9196;49.194;12.526;2022-12-07T11:53:04;3.00;99.90
18141;DHT22;9196;49.194;12.526;2022-12-07T11:55:41;3.00;99.90
18141;DHT22;9196;49.194;12.526;2022-12-07T11:58:20;3.10;99.90
18141;DHT22;9196;49.194;12.526;2022-12-07T12:00:51;3.10;99.90
18141;DHT22;9196;49.194;12.526;2022-12-07T12:03:25;3.10;99.90
18141;DHT22;9196;49.194;12.526;2022-12-07T12:05:57;3.10;99.90
18141;DHT22;9196;49.194;12.526;2022-12-07T12:08:28;3.00;99.90
18141;DHT22;9196;49.194;12.526;2022-12-07T12:11:00;2.90;99.90
18141;DHT22;9196;49.194;12.526;2022-12-07T12:13:58;3.00;99.90
18141;DHT22;9196;49.194;12.526;2022-12-07T12:17:01;3.10;99.90
18141;DHT22;9196;49.194;12.526;2022-12-07T12:19:34;3.10;99.90
18141;DHT22;9196;49.194;12.526;2022-12-07T12:22:11;3.20;99.90
18141;DHT22;9196;49.194;12.526;2022-12-07T12:24:40;3.20;99.90
18141;DHT22;9196;49.194;12.526;2022-12-07T12:27:15;3.20;99.90
18141;DHT22;9196;49.194;12.526;2022-12-07T12:29:43;3.20;99.90
18141;DHT22;9196;49.194;12.526;2022-12-07T12:32:16;3.10;99.90
18141;DHT22;9196;49.194;12.526;2022-12-07T12:35:00;3.20;99.90
18141;DHT22;9196;49.194;12.526;2022-12-07T12:37:43;3.30;99.90
18141;DHT22;9196;49.194;12.526;2022-12-07T12:43:42;3.30;99.90
18141;DHT22;9196;49.194;12.526;2022-12-07T12:46:38;3.30;99.90
18141;DHT22;9196;49.194;12.526;2022-12-07T12:49:36;3.40;99.90
18141;DHT22;9196;49.194;12.526;2022-12-07T12:55:19;3.30;99.90
18141;DHT22;9196;49.194;12.526;2022-12-07T12:57:55;3.40;99.90
18141;DHT22;9196;49.194;12.526;2022-12-07T13:00:43;3.40;99.90
18141;DHT22;9196;49.194;12.526;2022-12-07T13:03:21;3.40;99.90
18141;DHT22;9196;49.194;12.526;2022-12-07T13:06:17;3.40;99.90
18141;DHT22;9196;49.194;12.526;2022-12-07T13:08:44;3.40;99.90
18141;DHT22;9196;49.194;12.526;2022-12-07T13:11:19;3.50;99.90
18141;DHT22;9196;49.194;12.526;2022-12-07T13:13:46;3.50;99.90
18141;DHT22;9196;49.194;12.526;2022-12-07T13:16:40;3.50;99.90
18141;DHT22;9196;49.194;12.526;2022-12-07T13:22:41;3.40;99.90
18141;DHT22;9196;49.194;12.526;2022-12-07T13:25:12;3.50;99.90
18141;DHT22;9196;49.194;12.526;2022-12-07T13:27:41;3.40;99.90
18141;DHT22;9196;49.194;12.526;2022-12-07T13:30:15;3.40;99.90
18141;DHT22;9196;49.194;12.526;2022-12-07T13:32:51;3.40;99.90
18141;DHT22;9196;49.194;12.526;2022-12-07T13:35:32;3.40;99.90
18141;DHT22;9196;49.194;12.526;2022-12-07T13:38:02;3.40;99.90
18141;DHT22;9196;49.194;12.526;2022-12-07T13:40:30;3.50;99.90
18141;DHT22;9196;49.194;12.526;2022-12-07T13:42:58;3.60;99.90
18141;DHT22;9196;49.194;12.526;2022-12-07T13:45:26;3.60;99.90
18141;DHT22;9196;49.194;12.526;2022-12-07T13:48:18;3.60;99.90
18141;DHT22;9196;49.194;12.526;2022-12-07T13:50:53;3.50;99.90
18141;DHT22;9196;49.194;12.526;2022-12-07T13:53:20;3.60;99.90
18141;DHT22;9196;49.194;12.526;2022-12-07T13:55:47;3.70;99.90
18141;DHT22;9196;49.194;12.526;2022-12-07T13:58:14;3.70;99.90
18141;DHT22;9196;49.194;12.526;2022-12-07T14:00:41;3.80;99.90
18141;DHT22;9196;49.194;12.526;2022-12-07T14:03:28;3.70;99.90
18141;DHT22;9196;49.194;12.526;2022-12-07T14:06:22;3.70;99.90
18141;DHT22;9196;49.194;12.526;2022-12-07T14:09:06;3.70;99.90
18141;DHT22;9196;49.194;12.526;2022-12-07T14:11:33;3.80;99.90
18141;DHT22;9196;49.194;12.526;2022-12-07T14:14:02;3.80;99.90
18141;DHT22;9196;49.194;12.526;2022-12-07T14:16:30;3.80;99.90
18141;DHT22;9196;49.194;12.526;2022-12-07T14:19:00;3.70;99.90
18141;DHT22;9196;49.194;12.526;2022-12-07T14:21:28;3.70;99.90
18141;DHT22;9196;49.194;12.526;2022-12-07T14:24:16;3.70;99.90
18141;DHT22;9196;49.194;12.526;2022-12-07T14:26:44;3.70;99.90
18141;DHT22;9196;49.194;12.526;2022-12-07T14:29:22;3.70;99.90
18141;DHT22;9196;49.194;12.526;2022-12-07T14:31:49;3.70;99.90
18141;DHT22;9196;49.194;12.526;2022-12-07T14:34:19;3.70;99.90
18141;DHT22;9196;49.194;12.526;2022-12-07T14:36:46;3.60;99.90
18141;DHT22;9196;49.194;12.526;2022-12-07T14:39:13;3.60;99.90
18141;DHT22;9196;49.194;12.526;2022-12-07T14:41:40;3.60;99.90
18141;DHT22;9196;49.194;12.526;2022-12-07T14:44:20;3.50;99.90
18141;DHT22;9196;49.194;12.526;2022-12-07T14:46:48;3.60;99.90
18141;DHT22;9196;49.194;12.526;2022-12-07T14:49:17;3.50;99.90
18141;DHT22;9196;49.194;12.526;2022-12-07T14:51:45;3.50;99.90
18141;DHT22;9196;49.194;12.526;2022-12-07T14:54:16;3.50;99.90
18141;DHT22;9196;49.194;12.526;2022-12-07T14:56:44;3.50;99.90
18141;DHT22;9196;49.194;12.526;2022-12-07T14:59:11;3.50;99.90
18141;DHT22;9196;49.194;12.526;2022-12-07T15:01:38;3.50;99.90
18141;DHT22;9196;49.194;12.526;2022-12-07T15:04:05;3.50;99.90
18141;DHT22;9196;49.194;12.526;2022-12-07T15:06:34;3.50;99.90
18141;DHT22;9196;49.194;12.526;2022-12-07T15:09:01;3.50;99.90
18141;DHT22;9196;49.194;12.526;2022-12-07T15:11:28;3.50;99.90
18141;DHT22;9196;49.194;12.526;2022-12-07T15:13:55;3.50;99.90
18141;DHT22;9196;49.194;12.526;2022-12-07T15:16:39;3.50;99.90
18141;DHT22;9196;49.194;12.526;2022-12-07T15:19:10;3.40;99.90
18141;DHT22;9196;49.194;12.526;2022-12-07T15:21:40;3.40;99.90
18141;DHT22;9196;49.194;12.526;2022-12-07T15:24:09;3.40;99.90
18141;DHT22;9196;49.194;12.526;2022-12-07T15:26:36;3.50;99.90
18141;DHT22;9196;49.194;12.526;2022-12-07T15:29:03;3.40;99.90
18141;DHT22;9196;49.194;12.526;2022-12-07T15:31:30;3.40;99.90
18141;DHT22;9196;49.194;12.526;2022-12-07T15:33:57;3.40;99.90
18141;DHT22;9196;49.194;12.526;2022-12-07T15:36:26;3.40;99.90
18141;DHT22;9196;49.194;12.526;2022-12-07T15:38:55;3.40;99.90
18141;DHT22;9196;49.194;12.526;2022-12-07T15:41:23;3.40;99.90
18141;DHT22;9196;49.194;12.526;2022-12-07T15:43:50;3.40;99.90
18141;DHT22;9196;49.194;12.526;2022-12-07T15:46:36;3.50;99.90
18141;DHT22;9196;49.194;12.526;2022-12-07T15:49:04;3.40;99.90
18141;DHT22;9196;49.194;12.526;2022-12-07T15:51:31;3.40;99.90
18141;DHT22;9196;49.194;12.526;2022-12-07T15:53:59;3.40;99.90
18141;DHT22;9196;49.194;12.526;2022-12-07T15:56:26;3.40;99.90
18141;DHT22;9196;49.194;12.526;2022-12-07T15:58:53;3.40;99.90
18141;DHT22;9196;49.194;12.526;2022-12-07T16:01:20;3.40;99.90
18141;DHT22;9196;49.194;12.526;2022-12-07T16:03:47;3.40;99.90
18141;DHT22;9196;49.194;12.526;2022-12-07T16:06:16;3.40;99.90
18141;DHT22;9196;49.194;12.526;2022-12-07T16:08:43;3.40;99.90
18141;DHT22;9196;49.194;12.526;2022-12-07T16:11:11;3.40;99.90
18141;DHT22;9196;49.194;12.526;2022-12-07T16:13:38;3.50;99.90
18141;DHT22;9196;49.194;12.526;2022-12-07T16:16:07;3.40;99.90